Time;durP1;ratioP1;P1;durP2;ratioP2;P2;SDS_P1;SDS_P2;PMS_P1;PMS_P2;Temp;Humidity;BMP_temperature;BMP_pressure;BME280_temperature;BME280_humidity;BME280_pressure;Samples;Min_cycle;Max_cycle;Signal;HPM_P1;HPM_P2
2023/03/01 00:01:08;;;;;;;;;16.00;15.75;;;;;-147.17;100.00;35576.06;5021679;28;51066;-49
2023/03/01 00:03:33;;;;;;;;;14.75;13.00;;;;;-147.17;100.00;34505.41;5030702;28;51160;-48
2023/03/01 00:06:00;;;;;;;;;25.75;23.25;;;;;-147.17;100.00;34362.28;5029647;28;51107;-49
2023/03/01 00:08:26;;;;;;;;;24.00;23.75;;;;;-147.17;100.00;34158.38;5036968;28;53017;-48
2023/03/01 00:11:07;;;;;;;;;22.00;21.00;;;;;-147.17;100.00;33570.28;5026579;28;51133;-46
2023/03/01 00:13:33;;;;;;;;;26.50;23.75;;;;;-147.17;100.00;33993.72;5021914;28;51288;-47
2023/03/01 00:15:58;;;;;;;;;31.50;24.50;;;;;-147.17;100.00;33094.00;5009514;28;51201;-49
2023/03/01 00:18:24;;;;;;;;;29.00;27.00;;;;;-147.17;100.00;32315.97;5014153;28;51145;-49
2023/03/01 00:20:54;;;;;;;;;25.00;22.50;;;;;-147.17;100.00;31781.03;5031927;28;50987;-50
2023/03/01 00:23:20;;;;;;;;;16.50;13.25;;;;;-147.17;100.00;31737.94;5027912;28;51071;-49
2023/03/01 00:25:45;;;;;;;;;18.25;17.75;;;;;-147.17;100.00;31906.44;5015176;28;50912;-49
2023/03/01 00:28:11;;;;;;;;;20.75;19.50;;;;;-147.17;100.00;31669.38;5015387;28;51993;-50
2023/03/01 00:30:36;;;;;;;;;21.25;19.50;;;;;-147.17;100.00;31048.34;5022819;28;50955;-49
2023/03/01 00:33:01;;;;;;;;;22.50;21.25;;;;;-147.17;100.00;30607.59;5021181;28;51034;-49
2023/03/01 00:35:27;;;;;;;;;19.50;18.50;;;;;-147.17;100.00;30787.81;5014675;28;51251;-49
2023/03/01 00:37:57;;;;;;;;;22.00;21.25;;;;;-147.17;100.00;29183.91;5028840;28;52126;-50
2023/03/01 00:40:24;;;;;;;;;21.00;20.50;;;;;-147.17;100.00;28682.69;5019549;28;51027;-49
2023/03/01 00:42:49;;;;;;;;;23.75;23.50;;;;;-147.17;100.00;28933.28;5014957;28;51115;-49
2023/03/01 00:45:14;;;;;;;;;22.75;21.25;;;;;-147.17;100.00;28181.53;5014958;28;50984;-49
2023/03/01 00:47:40;;;;;;;;;22.25;20.00;;;;;-147.17;100.00;27179.44;5027507;28;51291;-50
2023/03/01 00:50:06;;;;;;;;;26.00;23.50;;;;;-147.17;100.00;26928.94;5013894;28;51127;-48
2023/03/01 00:52:31;;;;;;;;;26.25;20.75;;;;;-147.17;100.00;25927.16;5016688;28;51214;-48
2023/03/01 00:54:57;;;;;;;;;21.50;19.25;;;;;-147.17;100.00;24925.63;5008350;28;51091;-49
2023/03/01 00:57:23;;;;;;;;;22.50;19.50;;;;;-147.17;100.00;25176.00;5027380;28;51710;-50
2023/03/01 00:59:48;;;;;;;;;21.75;19.75;;;;;-147.17;100.00;25176.00;5014183;28;51409;-48
2023/03/01 01:02:14;;;;;;;;;19.75;18.00;;;;;-147.17;100.00;23674.09;5013756;28;51086;-51
2023/03/01 01:04:39;;;;;;;;;21.25;17.75;;;;;-147.17;100.00;23423.81;5014353;28;51156;-48
2023/03/01 01:07:05;;;;;;;;;22.25;22.00;;;;;-147.17;100.00;22923.34;5011489;28;51158;-49
2023/03/01 01:09:30;;;;;;;;;22.75;19.75;;;;;-147.17;100.00;23173.59;5014087;28;51045;-48
2023/03/01 01:11:56;;;;;;;;;20.50;19.00;;;;;-147.17;100.00;22422.94;5021713;28;51172;-51
2023/03/01 01:14:21;;;;;;;;;22.00;21.75;;;;;-147.17;100.00;21922.59;5027984;28;51339;-50
2023/03/01 01:16:47;;;;;;;;;21.75;20.75;;;;;-147.17;100.00;22172.75;5030417;28;52253;-49
2023/03/01 01:19:13;;;;;;;;;19.00;16.75;;;;;-147.17;100.00;21672.44;5033836;28;51106;-48
2023/03/01 01:21:39;;;;;;;;;23.00;20.25;;;;;-147.17;100.00;21922.59;5016474;28;51182;-50
2023/03/01 01:24:05;;;;;;;;;23.75;22.00;;;;;-147.17;100.00;21922.59;5014179;28;51157;-49
2023/03/01 01:26:33;;;;;;;;;8.00;5.25;;;;;-147.17;100.00;20922.09;5031731;28;53471;-50
2023/03/01 01:29:00;;;;;;;;;14.00;11.50;;;;;-147.17;100.00;21422.31;5031575;28;51066;-49
2023/03/01 01:31:27;;;;;;;;;23.50;19.75;;;;;-147.17;100.00;21422.31;5016593;28;51153;-50
2023/03/01 01:33:54;;;;;;;;;22.50;22.25;;;;;-147.17;100.00;20672.00;5015382;28;51291;-49
2023/03/01 01:36:20;;;;;;;;;19.50;18.25;;;;;-147.17;100.00;20922.09;5033735;28;51293;-50
2023/03/01 01:38:46;;;;;;;;;17.25;17.00;;;;;-147.17;100.00;20672.00;5033658;28;51065;-54
2023/03/01 01:41:13;;;;;;;;;25.50;21.75;;;;;-147.17;100.00;20922.09;5021115;28;51017;-49
2023/03/01 01:43:45;;;;;;;;;22.25;21.00;;;;;-147.17;100.00;20672.00;5014197;28;51245;-49
2023/03/01 01:46:21;;;;;;;;;23.00;19.50;;;;;-147.17;100.00;20421.94;5020118;28;52946;-49
2023/03/01 01:48:52;;;;;;;;;20.00;20.00;;;;;-147.17;100.00;19671.84;5028210;28;51227;-48
2023/03/01 01:51:27;;;;;;;;;17.50;16.25;;;;;-147.17;100.00;19921.84;5020420;28;51084;-49
2023/03/01 01:53:58;;;;;;;;;23.50;19.25;;;;;-147.17;100.00;20421.94;5014167;28;51037;-51
2023/03/01 01:56:28;;;;;;;;;19.25;19.25;;;;;-147.17;100.00;19921.84;5002716;28;52328;-49
2023/03/01 01:58:55;;;;;;;;;18.75;16.50;;;;;-147.17;100.00;20171.88;5016554;28;50908;-48
2023/03/01 02:01:20;;;;;;;;;23.00;20.50;;;;;-147.17;100.00;19421.84;5030596;28;51082;-50
2023/03/01 02:03:46;;;;;;;;;18.50;17.25;;;;;-147.17;100.00;19421.84;5026552;28;50938;-49
2023/03/01 02:06:31;;;;;;;;;22.50;20.00;;;;;-147.17;100.00;19171.84;5013269;28;51794;-49
2023/03/01 02:09:02;;;;;;;;;18.75;15.00;;;;;-147.17;100.00;18421.97;5013033;28;51006;-50
2023/03/01 02:11:29;;;;;;;;;23.00;22.25;;;;;-147.17;100.00;18421.97;5013498;28;51089;-50
2023/03/01 02:13:55;;;;;;;;;18.75;16.75;;;;;-147.17;100.00;17922.16;5013434;28;51003;-48
2023/03/01 02:16:20;;;;;;;;;21.25;16.50;;;;;-147.17;100.00;17922.16;5012890;28;51504;-50
2023/03/01 02:18:46;;;;;;;;;21.75;20.75;;;;;-147.17;100.00;16922.66;5030674;28;51013;-48
2023/03/01 02:21:17;;;;;;;;;19.00;17.25;;;;;-147.17;100.00;16922.66;5028039;28;51087;-50
2023/03/01 02:23:43;;;;;;;;;21.25;20.00;;;;;-147.17;100.00;16922.66;5013411;28;51023;-49
2023/03/01 02:26:40;;;;;;;;;20.25;19.25;;;;;-147.17;100.00;17422.38;5012896;28;51082;-49
2023/03/01 02:29:06;;;;;;;;;23.75;21.75;;;;;-147.17;100.00;17672.25;5013227;28;50905;-49
2023/03/01 02:31:44;;;;;;;;;22.75;19.75;;;;;-147.17;100.00;16922.66;5014541;28;51169;-50
2023/03/01 02:34:16;;;;;;;;;14.50;14.50;;;;;-147.17;100.00;16922.66;5012581;28;51125;-49
2023/03/01 02:36:53;;;;;;;;;16.50;15.25;;;;;-147.17;100.00;16423.03;5015415;28;51283;-49
2023/03/01 02:39:25;;;;;;;;;21.00;18.75;;;;;-147.17;100.00;16672.84;5012138;28;50955;-49
2023/03/01 02:41:53;;;;;;;;;21.25;21.25;;;;;-147.17;100.00;16173.25;5026047;28;51140;-49
2023/03/01 02:44:19;;;;;;;;;24.50;22.75;;;;;-147.17;100.00;15923.47;5013686;28;51161;-50
2023/03/01 02:46:50;;;;;;;;;19.25;17.75;;;;;-147.17;100.00;15423.94;5013577;28;51986;-49
2023/03/01 02:49:30;;;;;;;;;24.50;22.50;;;;;-147.17;100.00;15174.22;5012650;28;50922;-49
2023/03/01 02:52:18;;;;;;;;;19.75;17.50;;;;;-147.17;100.00;14924.50;5019843;28;51190;-49
2023/03/01 02:54:56;;;;;;;;;19.00;16.75;;;;;-147.17;100.00;14924.50;5028411;28;50856;-49
2023/03/01 02:57:23;;;;;;;;;18.75;17.00;;;;;-147.17;100.00;14425.13;5030284;28;50967;-50
2023/03/01 02:59:51;;;;;;;;;26.25;24.25;;;;;-147.17;100.00;13925.81;5032325;28;51184;-48
2023/03/01 03:02:36;;;;;;;;;23.25;23.00;;;;;-147.17;100.00;13676.16;5030853;28;50990;-49
2023/03/01 03:05:24;;;;;;;;;26.50;18.00;;;;;-147.17;100.00;12677.78;5016580;28;51228;-49
2023/03/01 03:07:50;;;;;;;;;23.00;23.00;;;;;-147.17;100.00;12428.22;5022052;28;52338;-48
2023/03/01 03:10:37;;;;;;;;;27.75;23.75;;;;;-147.17;100.00;12178.69;5028974;28;50890;-48
2023/03/01 03:13:05;;;;;;;;;24.75;22.75;;;;;-147.17;100.00;12178.69;5016464;28;51269;-48
2023/03/01 03:15:31;;;;;;;;;17.50;17.50;;;;;-147.17;100.00;12178.69;5032462;28;51057;-49
2023/03/01 03:17:58;;;;;;;;;16.00;15.75;;;;;-147.17;100.00;11929.16;5031739;28;51354;-49
2023/03/01 03:20:26;;;;;;;;;22.75;20.75;;;;;-147.17;100.00;11929.16;5012299;28;51198;-49
2023/03/01 03:22:54;;;;;;;;;12.50;12.25;;;;;-147.17;100.00;10931.25;5012780;28;51035;-51
2023/03/01 03:25:21;;;;;;;;;22.25;21.25;;;;;-147.17;100.00;10681.81;5017094;28;51139;-49
2023/03/01 03:27:48;;;;;;;;;24.25;23.00;;;;;-147.17;100.00;10432.38;5011886;28;53339;-49
2023/03/01 03:30:19;;;;;;;;;22.50;22.50;;;;;-147.17;100.00;10432.38;5012354;28;53298;-50
2023/03/01 03:32:53;;;;;;;;;24.25;20.25;;;;;-147.17;100.00;9933.56;5012199;28;51019;-48
2023/03/01 03:35:32;;;;;;;;;23.00;22.75;;;;;-147.17;100.00;10432.38;5012140;28;51114;-50
2023/03/01 03:38:03;;;;;;;;;20.50;18.00;;;;;-147.17;100.00;9933.56;5011831;28;51086;-48
2023/03/01 03:40:36;;;;;;;;;31.25;26.00;;;;;-147.17;100.00;9434.84;5016470;28;51033;-51
2023/03/01 03:43:03;;;;;;;;;26.75;23.75;;;;;-147.17;100.00;8437.53;5013170;28;51114;-50
2023/03/01 03:45:29;;;;;;;;;22.75;22.25;;;;;-147.17;100.00;8686.84;5012659;28;51344;-50
2023/03/01 03:47:54;;;;;;;;;24.00;23.00;;;;;-147.17;100.00;8437.53;5013500;28;51652;-51
2023/03/01 03:50:19;;;;;;;;;23.75;23.00;;;;;-147.17;100.00;8437.53;5012019;28;51062;-49
2023/03/01 03:52:45;;;;;;;;;18.00;17.75;;;;;-147.17;100.00;7939.00;5018339;28;51104;-48
2023/03/01 03:55:12;;;;;;;;;16.50;16.00;;;;;-147.17;100.00;7939.00;5012542;28;51417;-50
2023/03/01 03:57:39;;;;;;;;;29.25;26.50;;;;;-147.17;100.00;7939.00;5009630;28;52009;-49
2023/03/01 04:00:12;;;;;;;;;25.25;23.75;;;;;-147.17;100.00;7689.75;5024997;28;50946;-49
2023/03/01 04:02:38;;;;;;;;;22.25;20.00;;;;;-147.17;100.00;7939.00;5031015;28;51069;-48
2023/03/01 04:05:04;;;;;;;;;25.75;24.75;;;;;-147.17;100.00;7939.00;5017604;28;51206;-49
2023/03/01 04:07:29;;;;;;;;;25.25;21.75;;;;;-147.17;100.00;7440.50;5010972;28;51180;-47
2023/03/01 04:09:54;;;;;;;;;25.50;20.50;;;;;-147.17;100.00;7939.00;5014228;28;58269;-50
2023/03/01 04:12:22;;;;;;;;;25.50;22.00;;;;;-147.17;100.00;7689.75;5021108;28;51213;-50
2023/03/01 04:14:48;;;;;;;;;26.50;23.75;;;;;-147.17;100.00;6942.09;5034819;28;51299;-49
2023/03/01 04:17:13;;;;;;;;;19.50;18.00;;;;;-147.17;100.00;6692.91;5018423;28;52125;-49
2023/03/01 04:19:39;;;;;;;;;21.75;20.75;;;;;-147.17;100.00;6194.59;5017709;28;51157;-48
2023/03/01 04:22:09;;;;;;;;;29.75;26.25;;;;;-147.17;100.00;5945.44;5034839;28;50977;-50
2023/03/01 04:24:35;;;;;;;;;25.25;22.75;;;;;-147.17;100.00;5696.34;5034509;28;51070;-49
2023/03/01 04:27:00;;;;;;;;;22.00;21.50;;;;;-147.17;100.00;5198.13;5030713;28;51832;-49
2023/03/01 04:29:25;;;;;;;;;25.75;22.25;;;;;-147.17;100.00;5696.34;5032637;28;51201;-50
2023/03/01 04:31:51;;;;;;;;;26.00;23.00;;;;;-147.17;100.00;5696.34;5016412;28;50978;-50
2023/03/01 04:34:16;;;;;;;;;21.25;18.25;;;;;-147.17;100.00;5447.22;5033935;28;51375;-50
2023/03/01 04:36:41;;;;;;;;;23.00;22.00;;;;;-147.17;100.00;5945.44;5033057;28;51831;-50
2023/03/01 04:39:11;;;;;;;;;23.50;22.00;;;;;-147.17;100.00;5447.22;5034658;28;50996;-49
2023/03/01 04:41:40;;;;;;;;;26.50;23.00;;;;;-147.17;100.00;4949.06;5029143;28;50995;-49
2023/03/01 04:44:06;;;;;;;;;23.00;23.00;;;;;-147.17;100.00;4450.97;5033276;28;51185;-48
2023/03/01 04:46:32;;;;;;;;;19.00;17.50;;;;;-147.17;100.00;3952.94;5016762;28;52072;-49
2023/03/01 04:48:57;;;;;;;;;25.75;25.00;;;;;-147.17;100.00;3952.94;5033495;28;51021;-48
2023/03/01 04:51:23;;;;;;;;;23.75;20.75;;;;;-147.17;100.00;3952.94;5023316;28;51181;-51
2023/03/01 04:53:49;;;;;;;;;24.25;22.50;;;;;-147.17;100.00;3454.97;5014646;28;51339;-48
2023/03/01 04:56:17;;;;;;;;;29.00;24.75;;;;;-147.17;100.00;3703.94;5014409;28;52328;-50
2023/03/01 04:58:43;;;;;;;;;27.00;24.50;;;;;-147.17;100.00;3454.97;5023928;28;51295;-49
2023/03/01 05:01:15;;;;;;;;;30.50;23.50;;;;;-147.17;100.00;3206.00;5031876;28;51141;-48
2023/03/01 05:03:42;;;;;;;;;24.25;23.00;;;;;-147.17;100.00;3206.00;5032676;28;51043;-49
2023/03/01 05:06:08;;;;;;;;;22.25;20.00;;;;;-147.17;100.00;2957.06;5031630;28;52933;-49
2023/03/01 05:08:36;;;;;;;;;26.75;22.50;;;;;-147.17;100.00;2957.06;5021403;28;51108;-48
2023/03/01 05:11:02;;;;;;;;;22.50;22.00;;;;;-147.17;100.00;2708.13;5021731;28;51072;-47
2023/03/01 05:13:29;;;;;;;;;26.75;24.00;;;;;-147.17;100.00;2210.31;5007094;28;51350;-50
2023/03/01 05:15:59;;;;;;;;;19.75;19.75;;;;;-147.17;100.00;1712.56;5023065;28;51863;-49
2023/03/01 05:18:28;;;;;;;;;24.25;23.00;;;;;-147.17;100.00;1961.44;5015288;28;51020;-48
2023/03/01 05:20:56;;;;;;;;;22.00;21.00;;;;;-147.17;100.00;1463.72;5019638;28;51357;-47
2023/03/01 05:23:21;;;;;;;;;20.00;18.50;;;;;-147.17;100.00;1712.56;5013393;28;51323;-48
2023/03/01 05:25:47;;;;;;;;;27.00;23.25;;;;;-147.17;100.00;1214.91;5013974;28;51132;-48
2023/03/01 05:28:13;;;;;;;;;25.00;24.50;;;;;-147.17;100.00;1463.72;5031334;28;51060;-50
2023/03/01 05:30:39;;;;;;;;;30.75;25.75;;;;;-147.17;100.00;717.28;5004399;28;50981;-47
2023/03/01 05:33:05;;;;;;;;;28.25;26.25;;;;;-147.17;100.00;468.50;5027760;28;51414;-49
2023/03/01 05:35:33;;;;;;;;;28.00;21.75;;;;;-147.17;100.00;-29.03;5021258;28;50950;-49
2023/03/01 05:37:58;;;;;;;;;25.00;24.00;;;;;-147.17;100.00;-277.75;5012167;28;51006;-48
2023/03/01 05:40:24;;;;;;;;;22.50;21.75;;;;;-147.17;100.00;-29.03;5013471;28;55149;-48
2023/03/01 05:42:54;;;;;;;;;23.25;20.75;;;;;-147.17;100.00;-29.03;5028874;28;51171;-50
2023/03/01 05:45:21;;;;;;;;;26.50;23.50;;;;;-147.17;100.00;-277.75;5032334;28;52282;-49
2023/03/01 05:47:48;;;;;;;;;28.25;25.50;;;;;-147.17;100.00;-526.47;5030239;28;51186;-48
2023/03/01 05:50:18;;;;;;;;;23.00;21.75;;;;;-147.17;100.00;-526.47;5033763;28;51141;-46
2023/03/01 05:52:51;;;;;;;;;29.75;27.25;;;;;-147.17;100.00;-526.47;5000900;28;51175;-47
2023/03/01 05:55:19;;;;;;;;;29.00;28.50;;;;;-147.17;100.00;-526.47;5030950;28;51789;-48
2023/03/01 05:57:45;;;;;;;;;31.00;26.25;;;;;-147.17;100.00;-775.19;5031996;28;50982;-48
2023/03/01 06:00:11;;;;;;;;;28.25;26.25;;;;;-147.17;100.00;-1272.53;5020760;28;51108;-48
2023/03/01 06:02:37;;;;;;;;;24.00;21.50;;;;;-147.17;100.00;-1521.19;5012586;28;51201;-47
2023/03/01 06:05:04;;;;;;;;;26.75;26.25;;;;;-147.17;100.00;-1769.84;5018326;28;52322;-49
2023/03/01 06:07:29;;;;;;;;;29.00;28.00;;;;;-147.17;100.00;-2018.47;4995212;28;51027;-49
2023/03/01 06:09:54;;;;;;;;;25.75;25.00;;;;;-147.17;100.00;-2764.22;5012856;28;51015;-50
2023/03/01 06:12:20;;;;;;;;;30.25;29.00;;;;;-147.17;100.00;-2515.66;5022244;28;51409;-49
2023/03/01 06:14:47;;;;;;;;;21.00;19.25;;;;;-147.17;100.00;-2515.66;5023903;28;51099;-49
2023/03/01 06:17:12;;;;;;;;;31.75;26.25;;;;;-147.17;100.00;-3012.78;5025878;28;51044;-49
2023/03/01 06:19:38;;;;;;;;;32.75;30.50;;;;;-147.17;100.00;-3509.84;5012821;28;51334;-48
2023/03/01 06:22:03;;;;;;;;;32.50;29.00;;;;;-147.17;100.00;-2764.22;5026104;28;51347;-48
2023/03/01 06:24:29;;;;;;;;;36.00;30.25;;;;;-147.17;100.00;-3509.84;5032042;28;50907;-50
2023/03/01 06:26:54;;;;;;;;;30.25;29.00;;;;;-147.17;100.00;-4255.34;5015690;28;51577;-49
2023/03/01 06:29:19;;;;;;;;;34.75;29.00;;;;;-147.17;100.00;-4006.88;5032485;28;51096;-49
2023/03/01 06:31:45;;;;;;;;;29.25;29.25;;;;;-147.17;100.00;-4006.88;5028877;28;51286;-48
2023/03/01 06:34:13;;;;;;;;;33.75;31.75;;;;;-147.17;100.00;-3758.38;5002624;28;52564;-47
2023/03/01 06:36:38;;;;;;;;;26.25;25.25;;;;;-147.17;100.00;-3758.38;5017354;28;51160;-47
2023/03/01 06:39:05;;;;;;;;;35.75;34.50;;;;;-147.17;100.00;-3758.38;5011326;28;51264;-47
2023/03/01 06:41:30;;;;;;;;;37.50;34.25;;;;;-147.17;100.00;-3758.38;5023007;28;51340;-49
2023/03/01 06:43:56;;;;;;;;;41.00;34.25;;;;;-147.17;100.00;-4752.25;5017173;28;51358;-48
2023/03/01 06:46:21;;;;;;;;;39.00;36.00;;;;;-147.17;100.00;-5249.09;5031229;28;51167;-48
2023/03/01 06:48:46;;;;;;;;;36.00;32.50;;;;;-147.17;100.00;-5745.88;5032268;28;51788;-49
2023/03/01 06:51:12;;;;;;;;;34.25;33.25;;;;;-147.17;100.00;-5249.09;5029280;28;51295;-48
2023/03/01 06:53:37;;;;;;;;;35.25;29.25;;;;;-147.17;100.00;-5249.09;5029172;28;51022;-48
2023/03/01 06:56:03;;;;;;;;;35.75;33.50;;;;;-147.17;100.00;-5745.88;5031331;28;51228;-48
2023/03/01 06:58:28;;;;;;;;;33.50;30.25;;;;;-147.17;100.00;-5745.88;5023428;28;51471;-48
2023/03/01 07:00:54;;;;;;;;;33.50;29.25;;;;;-147.17;100.00;-5994.25;5021962;28;51148;-49
2023/03/01 07:03:19;;;;;;;;;34.25;33.25;;;;;-147.17;100.00;-5745.88;5016448;28;51225;-49
2023/03/01 07:05:44;;;;;;;;;37.25;36.00;;;;;-147.17;100.00;-6490.94;5032134;28;51102;-49
2023/03/01 07:08:10;;;;;;;;;37.25;36.00;;;;;-147.17;100.00;-6490.94;5014978;28;51021;-49
2023/03/01 07:10:35;;;;;;;;;38.75;33.75;;;;;-147.17;100.00;-6739.25;5014563;28;51028;-49
2023/03/01 07:13:01;;;;;;;;;33.00;28.25;;;;;-147.17;100.00;-6490.94;5011576;28;51262;-49
2023/03/01 07:15:27;;;;;;;;;44.50;39.75;;;;;-147.17;100.00;-6739.25;5011749;28;51131;-50
2023/03/01 07:17:52;;;;;;;;;40.50;36.75;;;;;-147.17;100.00;-6490.94;5011871;28;51060;-49
2023/03/01 07:20:19;;;;;;;;;39.75;37.00;;;;;-147.17;100.00;-6490.94;5012064;28;50933;-48
2023/03/01 07:22:44;;;;;;;;;35.25;33.75;;;;;-147.17;100.00;-6490.94;5022765;28;52488;-50
2023/03/01 07:25:10;;;;;;;;;43.25;37.00;;;;;-147.17;100.00;-6490.94;5030669;28;51059;-49
2023/03/01 07:27:36;;;;;;;;;42.50;38.00;;;;;-147.17;100.00;-6490.94;5016945;28;51183;-50
2023/03/01 07:30:02;;;;;;;;;38.75;36.00;;;;;-147.17;100.00;-6739.25;5009286;28;51130;-49
2023/03/01 07:32:27;;;;;;;;;44.75;41.75;;;;;-147.17;100.00;-6490.94;5020255;28;54297;-49
2023/03/01 07:34:53;;;;;;;;;52.75;46.25;;;;;-147.17;100.00;-6490.94;5027025;28;51216;-47
2023/03/01 07:37:18;;;;;;;;;38.75;36.25;;;;;-147.17;100.00;-6242.59;5027655;28;52575;-49
2023/03/01 07:39:43;;;;;;;;;33.50;29.75;;;;;-147.17;100.00;-5994.25;5026751;28;51356;-48
2023/03/01 07:42:09;;;;;;;;;45.75;41.25;;;;;-147.17;100.00;-5745.88;5031726;28;51986;-51
2023/03/01 07:44:34;;;;;;;;;42.75;38.25;;;;;-147.17;100.00;-5497.50;5027901;28;50938;-47
2023/03/01 07:47:00;;;;;;;;;39.00;37.00;;;;;-147.17;100.00;-5497.50;5033483;28;51067;-49
2023/03/01 07:49:26;;;;;;;;;42.50;39.25;;;;;-147.17;100.00;-4752.25;5035710;28;51287;-48
2023/03/01 07:51:52;;;;;;;;;51.00;44.00;;;;;-147.17;100.00;-4752.25;5018484;28;51140;-49
2023/03/01 07:54:18;;;;;;;;;47.25;43.00;;;;;-147.17;100.00;-5000.69;5017459;28;50916;-47
2023/03/01 07:56:43;;;;;;;;;39.75;39.50;;;;;-147.17;100.00;-6987.56;5034121;28;51232;-53
2023/03/01 07:59:09;;;;;;;;;47.00;42.50;;;;;-147.17;100.00;-9221.53;5030915;28;51070;-50
2023/03/01 08:01:34;;;;;;;;;40.75;35.75;;;;;-147.17;100.00;-8973.38;5022228;28;51077;-51
2023/03/01 08:04:00;;;;;;;;;47.50;41.50;;;;;-147.17;100.00;-5994.25;5022149;28;51085;-53
2023/03/01 08:06:25;;;;;;;;;48.00;41.75;;;;;-147.17;100.00;-526.47;5030796;28;51118;-49
2023/03/01 08:08:51;;;;;;;;;44.25;39.50;;;;;-147.17;100.00;3952.94;5014528;28;51313;-48
2023/03/01 08:11:16;;;;;;;;;39.25;37.50;;;;;-147.17;100.00;9185.47;5019056;28;51808;-49
2023/03/01 08:13:43;;;;;;;;;44.00;40.00;;;;;-147.17;100.00;14674.81;5015885;28;51157;-51
2023/03/01 08:16:13;;;;;;;;;40.75;39.00;;;;;-147.17;100.00;19421.84;5014504;28;51056;-48
2023/03/01 08:18:38;;;;;;;;;43.00;38.25;;;;;-147.17;100.00;26177.59;5014307;28;51089;-49
2023/03/01 08:21:09;;;;;;;;;49.75;43.50;;;;;-147.17;100.00;31880.97;5014070;28;51110;-50
2023/03/01 08:23:35;;;;;;;;;43.25;39.25;;;;;-147.17;100.00;35866.34;5014066;28;52087;-51
2023/03/01 08:26:09;;;;;;;;;50.00;39.75;;;;;-147.17;100.00;34503.44;5026224;28;51280;-50
2023/03/01 08:28:35;;;;;;;;;44.00;38.00;;;;;-147.17;100.00;37855.63;5030352;28;51070;-49
2023/03/01 08:31:01;;;;;;;;;47.00;41.50;;;;;-147.17;100.00;37698.63;5020135;28;50928;-48
2023/03/01 08:33:26;;;;;;;;;45.50;39.00;;;;;-147.17;100.00;40344.63;5029808;28;51570;-49
2023/03/01 08:35:52;;;;;;;;;40.50;37.25;;;;;-147.17;100.00;40704.00;5024122;28;51293;-51
2023/03/01 08:38:17;;;;;;;;;38.75;37.25;;;;;-147.17;100.00;42253.69;5014408;28;51093;-49
2023/03/01 08:40:43;;;;;;;;;45.50;39.00;;;;;-147.17;100.00;42968.84;5020564;28;51944;-49
2023/03/01 08:43:09;;;;;;;;;54.50;43.00;;;;;-147.17;100.00;43104.41;5014045;28;51328;-50
2023/03/01 08:45:34;;;;;;;;;40.25;37.50;;;;;-147.17;100.00;43900.31;5024140;28;51156;-51
2023/03/01 08:47:59;;;;;;;;;37.75;34.00;;;;;-147.17;100.00;44552.84;5017844;28;51170;-50
2023/03/01 08:50:25;;;;;;;;;42.00;37.50;;;;;-147.17;100.00;44580.38;5017695;28;51038;-49
2023/03/01 08:52:50;;;;;;;;;30.75;29.75;;;;;-147.17;100.00;44590.19;5017730;28;58739;-49
2023/03/01 08:55:17;;;;;;;;;44.25;37.25;;;;;-147.17;100.00;45032.50;5014571;28;51275;-50
2023/03/01 08:57:43;;;;;;;;;41.75;37.00;;;;;-147.17;100.00;45024.63;5002131;28;51265;-50
2023/03/01 09:00:09;;;;;;;;;44.50;38.75;;;;;-147.17;100.00;45498.44;5023071;28;51873;-50
2023/03/01 09:02:34;;;;;;;;;44.00;37.50;;;;;-147.17;100.00;46253.50;5024185;28;51146;-50
2023/03/01 09:05:00;;;;;;;;;39.25;35.75;;;;;-147.17;100.00;46524.91;5013845;28;51413;-51
2023/03/01 09:07:28;;;;;;;;;42.75;37.50;;;;;-147.17;100.00;46530.81;5018989;28;51374;-48
2023/03/01 09:09:53;;;;;;;;;40.50;36.00;;;;;-147.17;100.00;46603.56;5030934;28;51752;-49
2023/03/01 09:12:19;;;;;;;;;47.25;40.75;;;;;-147.17;100.00;46849.41;5030662;28;51162;-49
2023/03/01 09:14:45;;;;;;;;;37.25;34.75;;;;;-147.17;100.00;46633.06;5024953;28;51288;-51
2023/03/01 09:17:10;;;;;;;;;42.25;36.00;;;;;-147.17;100.00;46404.94;5019920;28;51301;-50
2023/03/01 09:19:35;;;;;;;;;36.75;34.25;;;;;-147.17;100.00;46196.50;5019497;28;51728;-49
2023/03/01 09:22:03;;;;;;;;;45.00;39.50;;;;;-147.17;100.00;46597.66;5015508;28;51204;-50
2023/03/01 09:24:28;;;;;;;;;35.75;33.50;;;;;-147.17;100.00;46401.00;5020331;28;51116;-50
2023/03/01 09:26:56;;;;;;;;;32.00;30.00;;;;;-147.17;100.00;46338.06;5012992;28;51108;-50
2023/03/01 09:29:22;;;;;;;;;37.75;34.00;;;;;-147.17;100.00;46517.03;5022012;28;52188;-47
2023/03/01 09:31:47;;;;;;;;;39.25;36.25;;;;;-147.17;100.00;46397.06;5012821;28;51364;-51
2023/03/01 09:34:15;;;;;;;;;43.25;37.50;;;;;-147.17;100.00;46635.03;5015732;28;51314;-49
2023/03/01 09:36:41;;;;;;;;;36.75;34.50;;;;;-147.17;100.00;46770.75;5023164;28;51215;-48
2023/03/01 09:39:07;;;;;;;;;43.25;36.50;;;;;-147.17;100.00;46935.94;5020295;28;52036;-52
2023/03/01 09:41:44;;;;;;;;;41.50;36.25;;;;;-147.17;100.00;46914.31;5019644;28;51140;-48
2023/03/01 09:44:29;;;;;;;;;38.50;33.75;;;;;-147.17;100.00;46719.59;5028821;28;51208;-49
2023/03/01 09:46:56;;;;;;;;;39.75;36.00;;;;;-147.17;100.00;46707.81;5019071;28;51190;-49
2023/03/01 09:49:24;;;;;;;;;39.75;34.50;;;;;-147.17;100.00;46361.69;5013173;28;51788;-51
2023/03/01 09:51:58;;;;;;;;;35.75;33.75;;;;;-147.17;100.00;46259.41;5019942;28;51185;-53
2023/03/01 09:54:24;;;;;;;;;41.75;37.50;;;;;-147.17;100.00;46072.59;5027696;28;51248;-51
2023/03/01 09:57:11;;;;;;;;;45.50;38.25;;;;;-147.17;100.00;46161.09;5020663;28;51139;-51
2023/03/01 09:59:44;;;;;;;;;44.25;36.50;;;;;-147.17;100.00;45956.59;5021747;28;52785;-50
2023/03/01 10:02:35;;;;;;;;;40.00;36.50;;;;;-147.17;100.00;45966.41;5025125;28;51076;-49
2023/03/01 10:05:27;;;;;;;;;44.25;38.25;;;;;-147.17;100.00;46345.94;5015449;28;51055;-50
2023/03/01 10:08:01;;;;;;;;;45.50;38.00;;;;;-147.17;100.00;46524.91;5021453;28;51122;-51
2023/03/01 10:10:39;;;;;;;;;39.00;32.00;;;;;-147.17;100.00;46756.97;5018494;28;51837;-48
2023/03/01 10:13:24;;;;;;;;;41.75;35.50;;;;;-147.17;100.00;46845.47;5014995;28;51191;-51
2023/03/01 10:16:11;;;;;;;;;38.50;32.75;;;;;-147.17;100.00;46916.28;5026240;28;51232;-49
2023/03/01 10:18:39;;;;;;;;;41.75;36.00;;;;;-147.17;100.00;46605.53;5015498;28;51191;-50
2023/03/01 10:21:20;;;;;;;;;40.50;35.00;;;;;-147.17;100.00;46674.38;5018798;28;51310;-47
2023/03/01 10:23:49;;;;;;;;;41.75;37.50;;;;;-147.17;100.00;46723.53;5022959;28;51011;-48
2023/03/01 10:26:30;;;;;;;;;49.50;39.75;;;;;-147.17;100.00;46770.75;5026376;28;51201;-49
2023/03/01 10:29:07;;;;;;;;;39.25;35.00;;;;;-147.17;100.00;46835.66;5025126;28;51004;-49
2023/03/01 10:31:44;;;;;;;;;45.25;38.00;;;;;-147.17;100.00;46762.88;5014410;28;51924;-48
2023/03/01 10:34:30;;;;;;;;;38.25;34.00;;;;;-147.17;100.00;47032.31;5019066;28;51107;-50
2023/03/01 10:37:21;;;;;;;;;42.25;36.75;;;;;-147.17;100.00;47417.88;5007674;28;51239;-52
2023/03/01 10:40:10;;;;;;;;;42.25;35.25;;;;;-147.17;100.00;47549.66;5020748;28;51149;-50
2023/03/01 10:42:49;;;;;;;;;37.50;33.50;;;;;-147.17;100.00;47777.84;5001597;28;52148;-48
2023/03/01 10:45:29;;;;;;;;;39.75;35.50;;;;;-147.17;100.00;47764.09;5011791;28;51306;-51
2023/03/01 10:48:26;;;;;;;;;36.50;34.25;;;;;-147.17;100.00;47850.66;5024587;28;51047;-50
2023/03/01 10:51:06;;;;;;;;;40.00;36.00;;;;;-147.17;100.00;48029.69;5020715;28;51192;-50
2023/03/01 10:53:40;;;;;;;;;39.25;34.50;;;;;-147.17;100.00;48163.47;4998236;28;52833;-48
2023/03/01 10:56:09;;;;;;;;;46.75;37.50;;;;;-147.17;100.00;48167.41;5017147;28;50961;-48
2023/03/01 10:58:37;;;;;;;;;43.75;38.00;;;;;-147.17;100.00;48104.44;5006840;28;51231;-48
2023/03/01 11:01:16;;;;;;;;;38.00;35.25;;;;;-147.17;100.00;48072.97;5022278;28;51448;-48
2023/03/01 11:03:42;;;;;;;;;40.50;35.50;;;;;-147.17;100.00;48104.44;5011407;28;51831;-49